Terminal Aerodrome Forecast
Issued by NWS

Home | Current Version | Previous Version | Graphics & Text | Print | Product List | Glossary On
Versions: 1 2 3 4 5 6 7 8 9 10 11 12 13 14 15 16 17 18 19 20 21
749
FTUS43 KABR 272055 AAA
TAFPIR
TAF AMD
KPIR 272055Z 2721/2818 05020G27KT 6SM RA BR BKN015 OVC060
     FM280200 02016KT 6SM -SHRASN BR OVC008
     FM280600 01012KT 3SM -SHRASN OVC003
     FM281100 01010KT 3SM -SHSN OVC008
     FM281500 04009KT P6SM -SHRA OVC015=

USA.gov is the U.S. government's official web portal to all federal, state and local government web resources and services.